Terminal Aerodrome Forecast
Issued by NWS

Home | Current Version | Previous Version | Text Only | Print | Product List | Glossary On
Versions: 1 2 3 4 5 6 7 8 9 10 11 12 13 14
000
FTUS43 KEAX 260521
TAFMKC
TAF
KMKC 260521Z 2606/2706 12007KT P6SM BKN100
     FM261100 18008KT P6SM VCTS BKN050CB
     FM261600 19009KT P6SM SCT060=

USA.gov is the U.S. government's official web portal to all federal, state and local government web resources and services.